sensor_id;sensor_type;location;lat;lon;timestamp;pressure;altitude;pressure_sealevel;temperature;humidity
20620;BME280;10469;42.720;23.252;2023-02-26T00:02:13;93682.41;;;13.67;89.75
20620;BME280;10469;42.720;23.252;2023-02-26T00:04:40;93693.69;;;13.69;88.90
20620;BME280;10469;42.720;23.252;2023-02-26T00:07:06;93667.81;;;13.73;87.70
20620;BME280;10469;42.720;23.252;2023-02-26T00:09:31;93647.38;;;13.67;87.48
20620;BME280;10469;42.720;23.252;2023-02-26T00:11:58;93672.38;;;13.73;87.39
20620;BME280;10469;42.720;23.252;2023-02-26T00:14:24;93693.72;;;13.64;87.17
20620;BME280;10469;42.720;23.252;2023-02-26T00:19:37;93674.88;;;13.64;87.94
20620;BME280;10469;42.720;23.252;2023-02-26T00:22:03;93615.75;;;13.54;88.99
20620;BME280;10469;42.720;23.252;2023-02-26T00:24:29;93644.19;;;13.65;88.06
20620;BME280;10469;42.720;23.252;2023-02-26T00:26:54;93664.06;;;13.69;88.43
20620;BME280;10469;42.720;23.252;2023-02-26T00:29:20;93680.56;;;13.63;87.86
20620;BME280;10469;42.720;23.252;2023-02-26T00:31:45;93644.19;;;13.65;86.96
20620;BME280;10469;42.720;23.252;2023-02-26T00:34:12;93644.13;;;13.70;84.77
20620;BME280;10469;42.720;23.252;2023-02-26T00:36:43;93648.97;;;13.68;84.69
20620;BME280;10469;42.720;23.252;2023-02-26T00:41:47;93658.72;;;13.64;85.12
20620;BME280;10469;42.720;23.252;2023-02-26T00:44:12;93628.91;;;13.55;85.60
20620;BME280;10469;42.720;23.252;2023-02-26T00:47:13;93642.38;;;13.55;85.40
20620;BME280;10469;42.720;23.252;2023-02-26T00:49:53;93652.63;;;13.53;86.29
20620;BME280;10469;42.720;23.252;2023-02-26T00:52:28;93652.69;;;13.48;86.28
20620;BME280;10469;42.720;23.252;2023-02-26T00:54:57;93634.66;;;13.49;84.96
20620;BME280;10469;42.720;23.252;2023-02-26T00:57:22;93670.16;;;13.51;84.66
20620;BME280;10469;42.720;23.252;2023-02-26T00:59:47;93651.84;;;13.53;84.03
20620;BME280;10469;42.720;23.252;2023-02-26T01:02:13;93650.69;;;13.59;82.10
20620;BME280;10469;42.720;23.252;2023-02-26T01:04:39;93644.75;;;13.62;81.89
20620;BME280;10469;42.720;23.252;2023-02-26T01:07:05;93624.22;;;13.66;79.60
20620;BME280;10469;42.720;23.252;2023-02-26T01:09:35;93629.84;;;13.70;79.01
20620;BME280;10469;42.720;23.252;2023-02-26T01:12:05;93623.19;;;13.62;80.21
20620;BME280;10469;42.720;23.252;2023-02-26T01:14:31;93635.88;;;13.62;80.10
20620;BME280;10469;42.720;23.252;2023-02-26T01:19:44;93627.25;;;13.60;80.29
20620;BME280;10469;42.720;23.252;2023-02-26T01:22:31;93632.59;;;13.65;79.09
20620;BME280;10469;42.720;23.252;2023-02-26T01:25:06;93619.16;;;13.60;79.49
20620;BME280;10469;42.720;23.252;2023-02-26T01:27:32;93578.34;;;13.52;79.71
20620;BME280;10469;42.720;23.252;2023-02-26T01:29:58;93584.94;;;13.65;78.08
20620;BME280;10469;42.720;23.252;2023-02-26T01:35:10;93593.63;;;13.57;78.28
20620;BME280;10469;42.720;23.252;2023-02-26T01:37:49;93582.28;;;13.60;77.58
20620;BME280;10469;42.720;23.252;2023-02-26T01:42:43;93555.34;;;13.60;76.89
20620;BME280;10469;42.720;23.252;2023-02-26T01:45:25;93501.84;;;13.72;73.97
20620;BME280;10469;42.720;23.252;2023-02-26T01:48:17;93541.81;;;13.65;72.99
20620;BME280;10469;42.720;23.252;2023-02-26T01:50:46;93586.75;;;13.70;73.51
20620;BME280;10469;42.720;23.252;2023-02-26T01:53:18;93573.00;;;13.71;72.65
20620;BME280;10469;42.720;23.252;2023-02-26T01:55:47;93540.78;;;13.61;72.69
20620;BME280;10469;42.720;23.252;2023-02-26T01:58:14;93565.66;;;13.53;73.07
20620;BME280;10469;42.720;23.252;2023-02-26T02:00:41;93568.66;;;13.51;73.02
20620;BME280;10469;42.720;23.252;2023-02-26T02:03:07;93550.81;;;13.55;72.54
20620;BME280;10469;42.720;23.252;2023-02-26T02:05:55;93569.94;;;13.54;72.92
20620;BME280;10469;42.720;23.252;2023-02-26T02:08:22;93567.16;;;13.40;74.06
20620;BME280;10469;42.720;23.252;2023-02-26T02:10:49;93572.78;;;13.44;73.80
20620;BME280;10469;42.720;23.252;2023-02-26T02:13:25;93575.16;;;13.45;73.08
20620;BME280;10469;42.720;23.252;2023-02-26T02:16:17;93558.22;;;13.45;72.81
20620;BME280;10469;42.720;23.252;2023-02-26T02:33:11;93546.28;;;13.51;71.06
20620;BME280;10469;42.720;23.252;2023-02-26T02:35:43;93550.63;;;13.47;70.61
20620;BME280;10469;42.720;23.252;2023-02-26T02:38:34;93539.38;;;13.45;70.36
20620;BME280;10469;42.720;23.252;2023-02-26T02:41:18;93542.06;;;13.45;69.63
20620;BME280;10469;42.720;23.252;2023-02-26T02:43:46;93562.50;;;13.46;69.90
20620;BME280;10469;42.720;23.252;2023-02-26T02:46:23;93572.19;;;13.47;69.04
20620;BME280;10469;42.720;23.252;2023-02-26T02:49:10;93542.84;;;13.45;69.39
20620;BME280;10469;42.720;23.252;2023-02-26T02:51:45;93555.81;;;13.43;69.84
20620;BME280;10469;42.720;23.252;2023-02-26T02:56:57;93573.41;;;13.36;70.44
20620;BME280;10469;42.720;23.252;2023-02-26T02:59:32;93577.34;;;13.14;70.05
20620;BME280;10469;42.720;23.252;2023-02-26T03:02:27;93590.72;;;13.24;70.28
20620;BME280;10469;42.720;23.252;2023-02-26T03:04:55;93599.78;;;13.34;70.49
20620;BME280;10469;42.720;23.252;2023-02-26T03:07:21;93569.44;;;13.28;70.50
20620;BME280;10469;42.720;23.252;2023-02-26T03:09:47;93598.13;;;13.38;68.73
20620;BME280;10469;42.720;23.252;2023-02-26T03:12:13;93579.69;;;13.26;69.20
20620;BME280;10469;42.720;23.252;2023-02-26T03:14:39;93579.41;;;13.27;68.82
20620;BME280;10469;42.720;23.252;2023-02-26T03:20:28;93587.34;;;13.43;66.99
20620;BME280;10469;42.720;23.252;2023-02-26T03:23:04;93585.19;;;13.40;66.98
20620;BME280;10469;42.720;23.252;2023-02-26T03:28:34;93579.44;;;13.22;67.27
20620;BME280;10469;42.720;23.252;2023-02-26T03:31:06;93570.06;;;13.44;65.90
20620;BME280;10469;42.720;23.252;2023-02-26T03:36:10;93579.19;;;13.48;64.96
20620;BME280;10469;42.720;23.252;2023-02-26T03:38:44;93588.13;;;13.43;66.04
20620;BME280;10469;42.720;23.252;2023-02-26T03:41:13;93568.50;;;13.38;66.48
20620;BME280;10469;42.720;23.252;2023-02-26T03:43:47;93564.78;;;13.34;66.96
20620;BME280;10469;42.720;23.252;2023-02-26T03:46:24;93562.16;;;13.28;67.29
20620;BME280;10469;42.720;23.252;2023-02-26T03:48:52;93572.88;;;13.34;67.44
20620;BME280;10469;42.720;23.252;2023-02-26T03:51:19;93589.38;;;13.27;68.14
20620;BME280;10469;42.720;23.252;2023-02-26T03:53:50;93573.94;;;13.33;68.85
20620;BME280;10469;42.720;23.252;2023-02-26T03:58:55;93568.56;;;13.33;70.34
20620;BME280;10469;42.720;23.252;2023-02-26T04:01:25;93551.44;;;13.23;70.63
20620;BME280;10469;42.720;23.252;2023-02-26T04:03:57;93577.84;;;13.16;70.99
20620;BME280;10469;42.720;23.252;2023-02-26T04:06:25;93580.28;;;13.18;71.02
20620;BME280;10469;42.720;23.252;2023-02-26T04:08:51;93591.31;;;13.16;71.51
20620;BME280;10469;42.720;23.252;2023-02-26T04:11:19;93569.03;;;13.11;72.28
20620;BME280;10469;42.720;23.252;2023-02-26T04:13:45;93579.47;;;13.17;71.91
20620;BME280;10469;42.720;23.252;2023-02-26T04:16:12;93566.09;;;13.07;73.13
20620;BME280;10469;42.720;23.252;2023-02-26T04:18:38;93552.09;;;13.10;72.14
20620;BME280;10469;42.720;23.252;2023-02-26T04:21:03;93568.63;;;13.27;70.81
20620;BME280;10469;42.720;23.252;2023-02-26T04:23:29;93546.34;;;13.17;71.05
20620;BME280;10469;42.720;23.252;2023-02-26T04:25:55;93549.34;;;13.15;72.13
20620;BME280;10469;42.720;23.252;2023-02-26T04:28:21;93528.97;;;13.09;71.60
20620;BME280;10469;42.720;23.252;2023-02-26T04:30:46;93526.34;;;13.28;70.56
20620;BME280;10469;42.720;23.252;2023-02-26T04:33:12;93539.81;;;13.28;70.54
20620;BME280;10469;42.720;23.252;2023-02-26T04:35:38;93532.06;;;13.21;71.16
20620;BME280;10469;42.720;23.252;2023-02-26T04:38:03;93491.69;;;13.21;71.50
20620;BME280;10469;42.720;23.252;2023-02-26T04:40:29;93522.34;;;13.25;71.01
20620;BME280;10469;42.720;23.252;2023-02-26T04:42:55;93504.50;;;13.35;68.99
20620;BME280;10469;42.720;23.252;2023-02-26T04:45:20;93515.25;;;13.35;67.58
20620;BME280;10469;42.720;23.252;2023-02-26T04:47:46;93507.75;;;13.32;68.07
20620;BME280;10469;42.720;23.252;2023-02-26T04:50:11;93516.28;;;13.39;67.34
20620;BME280;10469;42.720;23.252;2023-02-26T04:52:37;93508.78;;;13.36;67.53
20620;BME280;10469;42.720;23.252;2023-02-26T04:55:02;93503.91;;;13.38;67.25
20620;BME280;10469;42.720;23.252;2023-02-26T04:57:28;93509.50;;;13.41;66.21
20620;BME280;10469;42.720;23.252;2023-02-26T04:59:53;93503.91;;;13.38;66.79
20620;BME280;10469;42.720;23.252;2023-02-26T05:02:19;93493.44;;;13.36;66.57
20620;BME280;10469;42.720;23.252;2023-02-26T05:04:44;93500.72;;;13.36;67.26
20620;BME280;10469;42.720;23.252;2023-02-26T05:07:10;93500.13;;;13.39;67.36
20620;BME280;10469;42.720;23.252;2023-02-26T05:09:35;93475.94;;;13.34;67.89
20620;BME280;10469;42.720;23.252;2023-02-26T05:12:01;93437.28;;;13.24;68.24
20620;BME280;10469;42.720;23.252;2023-02-26T05:14:26;93462.47;;;13.34;66.80
20620;BME280;10469;42.720;23.252;2023-02-26T05:16:51;93398.84;;;13.43;65.66
20620;BME280;10469;42.720;23.252;2023-02-26T05:19:17;93426.28;;;13.45;64.77
20620;BME280;10469;42.720;23.252;2023-02-26T05:21:42;93434.00;;;13.51;63.62
20620;BME280;10469;42.720;23.252;2023-02-26T05:24:08;93500.56;;;13.46;63.79
20620;BME280;10469;42.720;23.252;2023-02-26T05:26:33;93438.47;;;13.61;62.68
20620;BME280;10469;42.720;23.252;2023-02-26T05:28:58;93408.91;;;13.56;62.51
20620;BME280;10469;42.720;23.252;2023-02-26T05:31:24;93417.31;;;13.68;61.73
20620;BME280;10469;42.720;23.252;2023-02-26T05:33:51;93394.19;;;13.67;61.19
20620;BME280;10469;42.720;23.252;2023-02-26T05:36:17;93438.16;;;13.81;60.58
20620;BME280;10469;42.720;23.252;2023-02-26T05:38:42;93434.88;;;13.66;60.40
20620;BME280;10469;42.720;23.252;2023-02-26T05:41:07;93403.66;;;13.84;59.96
20620;BME280;10469;42.720;23.252;2023-02-26T05:43:33;93451.56;;;13.87;59.51
20620;BME280;10469;42.720;23.252;2023-02-26T05:45:58;93438.69;;;13.84;60.03
20620;BME280;10469;42.720;23.252;2023-02-26T05:48:24;93433.94;;;13.75;59.70
20620;BME280;10469;42.720;23.252;2023-02-26T05:50:50;93437.50;;;13.90;58.74
20620;BME280;10469;42.720;23.252;2023-02-26T05:53:16;93439.78;;;13.83;58.21
20620;BME280;10469;42.720;23.252;2023-02-26T05:55:42;93392.34;;;13.81;58.52
20620;BME280;10469;42.720;23.252;2023-02-26T05:58:07;93430.97;;;13.96;57.24
20620;BME280;10469;42.720;23.252;2023-02-26T06:00:33;93433.63;;;14.15;55.54
20620;BME280;10469;42.720;23.252;2023-02-26T06:02:58;93459.34;;;14.26;54.48
20620;BME280;10469;42.720;23.252;2023-02-26T06:05:24;93425.00;;;14.31;54.57
20620;BME280;10469;42.720;23.252;2023-02-26T06:07:50;93392.84;;;14.35;54.02
20620;BME280;10469;42.720;23.252;2023-02-26T06:10:15;93445.22;;;14.48;52.58
20620;BME280;10469;42.720;23.252;2023-02-26T06:12:41;93450.78;;;14.57;52.42
20620;BME280;10469;42.720;23.252;2023-02-26T06:15:07;93382.44;;;14.61;51.99
20620;BME280;10469;42.720;23.252;2023-02-26T06:17:33;93320.59;;;14.92;49.20
20620;BME280;10469;42.720;23.252;2023-02-26T06:19:59;93416.94;;;14.92;49.97
20620;BME280;10469;42.720;23.252;2023-02-26T06:22:24;93594.50;;;14.95;49.28
20620;BME280;10469;42.720;23.252;2023-02-26T06:24:50;93320.38;;;15.16;48.49
20620;BME280;10469;42.720;23.252;2023-02-26T06:27:15;93423.94;;;15.48;48.42
20620;BME280;10469;42.720;23.252;2023-02-26T06:29:41;93419.72;;;15.55;47.42
20620;BME280;10469;42.720;23.252;2023-02-26T06:32:07;93448.34;;;15.43;47.77
20620;BME280;10469;42.720;23.252;2023-02-26T06:34:32;93417.13;;;15.37;48.02
20620;BME280;10469;42.720;23.252;2023-02-26T06:36:57;93462.16;;;15.41;47.33
20620;BME280;10469;42.720;23.252;2023-02-26T06:39:23;93442.47;;;15.54;47.41
20620;BME280;10469;42.720;23.252;2023-02-26T06:41:48;93440.34;;;15.51;46.89
20620;BME280;10469;42.720;23.252;2023-02-26T06:44:14;93473.94;;;15.45;46.70
20620;BME280;10469;42.720;23.252;2023-02-26T06:46:40;93424.34;;;15.69;46.00
20620;BME280;10469;42.720;23.252;2023-02-26T06:49:05;93439.31;;;15.75;46.40
20620;BME280;10469;42.720;23.252;2023-02-26T06:51:31;93422.19;;;15.93;45.96
20620;BME280;10469;42.720;23.252;2023-02-26T06:53:57;93397.16;;;15.88;44.93
20620;BME280;10469;42.720;23.252;2023-02-26T06:56:23;93439.91;;;15.86;44.39
20620;BME280;10469;42.720;23.252;2023-02-26T06:58:48;93380.09;;;16.01;44.09
20620;BME280;10469;42.720;23.252;2023-02-26T07:01:14;93350.91;;;16.12;43.82
20620;BME280;10469;42.720;23.252;2023-02-26T07:03:40;93425.50;;;16.13;43.98
20620;BME280;10469;42.720;23.252;2023-02-26T07:06:06;93406.53;;;16.26;43.19
20620;BME280;10469;42.720;23.252;2023-02-26T07:08:33;93423.38;;;16.46;42.78
20620;BME280;10469;42.720;23.252;2023-02-26T07:10:58;93443.66;;;16.35;43.23
20620;BME280;10469;42.720;23.252;2023-02-26T07:13:24;93342.75;;;16.03;43.37
20620;BME280;10469;42.720;23.252;2023-02-26T07:15:49;93476.22;;;16.29;43.30
20620;BME280;10469;42.720;23.252;2023-02-26T07:18:15;93418.31;;;16.53;42.92
20620;BME280;10469;42.720;23.252;2023-02-26T07:20:41;93450.78;;;16.53;42.81
20620;BME280;10469;42.720;23.252;2023-02-26T07:23:07;93424.91;;;16.38;42.97
20620;BME280;10469;42.720;23.252;2023-02-26T07:25:32;93359.47;;;16.36;43.11
20620;BME280;10469;42.720;23.252;2023-02-26T07:27:58;93426.25;;;16.49;43.54
20620;BME280;10469;42.720;23.252;2023-02-26T07:30:24;93391.44;;;16.56;43.64
20620;BME280;10469;42.720;23.252;2023-02-26T07:32:50;93413.47;;;16.95;42.60
20620;BME280;10469;42.720;23.252;2023-02-26T07:35:15;93417.94;;;16.68;42.82
20620;BME280;10469;42.720;23.252;2023-02-26T07:37:41;93386.09;;;16.43;43.16
20620;BME280;10469;42.720;23.252;2023-02-26T07:40:07;93385.44;;;16.37;43.97
20620;BME280;10469;42.720;23.252;2023-02-26T07:42:32;93346.94;;;16.40;44.10
20620;BME280;10469;42.720;23.252;2023-02-26T07:44:58;93393.06;;;16.66;43.70
20620;BME280;10469;42.720;23.252;2023-02-26T07:47:24;93374.06;;;16.26;43.70
20620;BME280;10469;42.720;23.252;2023-02-26T07:49:49;93411.25;;;16.43;44.68
20620;BME280;10469;42.720;23.252;2023-02-26T07:52:14;93421.38;;;16.60;43.19
20620;BME280;10469;42.720;23.252;2023-02-26T07:54:40;93409.66;;;16.42;43.55
20620;BME280;10469;42.720;23.252;2023-02-26T07:57:06;93408.91;;;16.73;43.54
20620;BME280;10469;42.720;23.252;2023-02-26T07:59:31;93444.50;;;16.66;43.30
20620;BME280;10469;42.720;23.252;2023-02-26T08:01:57;93426.66;;;16.88;43.10
20620;BME280;10469;42.720;23.252;2023-02-26T08:04:22;93432.63;;;16.53;43.09
20620;BME280;10469;42.720;23.252;2023-02-26T08:06:47;93366.84;;;16.67;42.53
20620;BME280;10469;42.720;23.252;2023-02-26T08:09:13;93386.69;;;16.85;43.12
20620;BME280;10469;42.720;23.252;2023-02-26T08:11:38;93404.59;;;16.72;42.42
20620;BME280;10469;42.720;23.252;2023-02-26T08:14:07;93449.38;;;17.09;42.49
20620;BME280;10469;42.720;23.252;2023-02-26T08:16:32;93424.34;;;17.03;42.38
20620;BME280;10469;42.720;23.252;2023-02-26T08:18:58;93432.47;;;17.03;42.35
20620;BME280;10469;42.720;23.252;2023-02-26T08:21:23;93380.28;;;17.20;42.13
20620;BME280;10469;42.720;23.252;2023-02-26T08:23:49;93429.00;;;17.12;42.01
20620;BME280;10469;42.720;23.252;2023-02-26T08:26:16;93415.75;;;17.01;42.11
20620;BME280;10469;42.720;23.252;2023-02-26T08:28:42;93444.09;;;17.44;41.61
20620;BME280;10469;42.720;23.252;2023-02-26T08:31:08;93380.78;;;17.31;41.40
20620;BME280;10469;42.720;23.252;2023-02-26T08:33:33;93448.72;;;17.43;41.74
20620;BME280;10469;42.720;23.252;2023-02-26T08:35:59;93462.06;;;17.00;41.33
20620;BME280;10469;42.720;23.252;2023-02-26T08:38:27;93411.47;;;17.09;42.11
20620;BME280;10469;42.720;23.252;2023-02-26T08:40:53;93463.53;;;17.37;41.47
20620;BME280;10469;42.720;23.252;2023-02-26T08:43:19;93465.16;;;17.47;41.23
20620;BME280;10469;42.720;23.252;2023-02-26T08:45:45;93442.53;;;17.51;41.21
20620;BME280;10469;42.720;23.252;2023-02-26T08:48:11;93442.34;;;18.14;40.62
20620;BME280;10469;42.720;23.252;2023-02-26T08:50:36;93423.63;;;17.77;39.69
20620;BME280;10469;42.720;23.252;2023-02-26T08:53:03;93456.03;;;18.00;40.58
20620;BME280;10469;42.720;23.252;2023-02-26T08:55:28;93461.47;;;18.00;40.41
20620;BME280;10469;42.720;23.252;2023-02-26T08:57:54;93423.50;;;18.00;40.61
20620;BME280;10469;42.720;23.252;2023-02-26T09:00:20;93447.13;;;18.17;39.01
20620;BME280;10469;42.720;23.252;2023-02-26T09:02:45;93443.44;;;18.04;39.45
20620;BME280;10469;42.720;23.252;2023-02-26T09:05:12;93426.97;;;17.74;39.44
20620;BME280;10469;42.720;23.252;2023-02-26T09:07:39;93487.31;;;17.89;40.30
20620;BME280;10469;42.720;23.252;2023-02-26T09:10:05;93438.97;;;18.43;39.84
20620;BME280;10469;42.720;23.252;2023-02-26T09:12:31;93468.84;;;18.51;39.13
20620;BME280;10469;42.720;23.252;2023-02-26T09:14:57;93446.03;;;18.70;38.67
20620;BME280;10469;42.720;23.252;2023-02-26T09:17:24;93444.66;;;19.02;38.51
20620;BME280;10469;42.720;23.252;2023-02-26T09:19:50;93461.13;;;19.05;37.85
20620;BME280;10469;42.720;23.252;2023-02-26T09:22:16;93467.25;;;19.79;36.85
20620;BME280;10469;42.720;23.252;2023-02-26T09:24:41;93415.03;;;19.86;35.10
20620;BME280;10469;42.720;23.252;2023-02-26T09:27:07;93458.72;;;19.51;35.59
20620;BME280;10469;42.720;23.252;2023-02-26T09:29:32;93428.59;;;20.15;34.96
20620;BME280;10469;42.720;23.252;2023-02-26T09:31:58;93470.28;;;20.91;34.00
20620;BME280;10469;42.720;23.252;2023-02-26T09:34:23;93500.56;;;20.56;33.64
20620;BME280;10469;42.720;23.252;2023-02-26T09:36:49;93438.31;;;20.04;34.39
20620;BME280;10469;42.720;23.252;2023-02-26T09:39:14;93399.81;;;20.56;33.32
20620;BME280;10469;42.720;23.252;2023-02-26T09:41:51;93429.63;;;20.86;33.36
20620;BME280;10469;42.720;23.252;2023-02-26T09:44:31;93424.66;;;21.70;32.53
20620;BME280;10469;42.720;23.252;2023-02-26T09:49:50;93443.72;;;20.88;32.94
20620;BME280;10469;42.720;23.252;2023-02-26T09:55:37;93453.53;;;21.46;33.01
20620;BME280;10469;42.720;23.252;2023-02-26T09:58:12;93418.38;;;21.33;33.27
20620;BME280;10469;42.720;23.252;2023-02-26T10:00:59;93414.59;;;20.04;34.54
20620;BME280;10469;42.720;23.252;2023-02-26T10:11:55;93425.63;;;20.08;35.39
20620;BME280;10469;42.720;23.252;2023-02-26T10:14:48;93448.88;;;20.68;35.02
20620;BME280;10469;42.720;23.252;2023-02-26T10:17:47;93473.84;;;21.03;33.94
20620;BME280;10469;42.720;23.252;2023-02-26T10:20:29;93470.34;;;20.19;35.10
20620;BME280;10469;42.720;23.252;2023-02-26T10:25:42;93450.91;;;21.74;34.35
20620;BME280;10469;42.720;23.252;2023-02-26T10:36:29;93427.50;;;22.91;32.83
20620;BME280;10469;42.720;23.252;2023-02-26T10:39:16;93382.19;;;22.09;32.86
20620;BME280;10469;42.720;23.252;2023-02-26T10:41:44;93393.63;;;21.62;33.54
20620;BME280;10469;42.720;23.252;2023-02-26T10:47:48;93424.28;;;20.77;35.70
20620;BME280;10469;42.720;23.252;2023-02-26T10:50:19;93392.91;;;20.71;35.67
20620;BME280;10469;42.720;23.252;2023-02-26T10:52:48;93438.78;;;19.76;36.57
20620;BME280;10469;42.720;23.252;2023-02-26T10:57:59;93419.38;;;19.87;36.97
20620;BME280;10469;42.720;23.252;2023-02-26T11:00:27;93390.25;;;18.81;38.06
20620;BME280;10469;42.720;23.252;2023-02-26T11:03:01;93456.53;;;18.63;38.52
20620;BME280;10469;42.720;23.252;2023-02-26T11:05:29;93376.34;;;18.91;38.76
20620;BME280;10469;42.720;23.252;2023-02-26T11:08:02;93394.66;;;19.03;38.89
20620;BME280;10469;42.720;23.252;2023-02-26T11:10:41;93410.09;;;18.29;39.72
20620;BME280;10469;42.720;23.252;2023-02-26T11:13:09;93399.56;;;17.85;40.60
20620;BME280;10469;42.720;23.252;2023-02-26T11:15:35;93375.97;;;17.94;40.75
20620;BME280;10469;42.720;23.252;2023-02-26T11:18:00;93382.34;;;17.80;40.79
20620;BME280;10469;42.720;23.252;2023-02-26T11:20:40;93384.44;;;17.92;41.00
20620;BME280;10469;42.720;23.252;2023-02-26T11:23:13;93401.50;;;18.10;41.10
20620;BME280;10469;42.720;23.252;2023-02-26T11:25:40;93458.41;;;17.75;41.85
20620;BME280;10469;42.720;23.252;2023-02-26T11:30:43;93365.72;;;17.65;42.74
20620;BME280;10469;42.720;23.252;2023-02-26T11:33:26;93388.34;;;17.60;43.14
20620;BME280;10469;42.720;23.252;2023-02-26T11:35:57;93415.22;;;17.39;43.83
20620;BME280;10469;42.720;23.252;2023-02-26T11:38:26;93384.72;;;17.16;44.78
20620;BME280;10469;42.720;23.252;2023-02-26T11:40:56;93418.31;;;17.07;44.86
20620;BME280;10469;42.720;23.252;2023-02-26T11:43:24;93402.41;;;17.14;44.28
20620;BME280;10469;42.720;23.252;2023-02-26T11:45:59;93443.44;;;16.98;45.75
20620;BME280;10469;42.720;23.252;2023-02-26T11:51:03;93438.41;;;16.83;47.00
20620;BME280;10469;42.720;23.252;2023-02-26T11:53:53;93453.56;;;16.84;47.15
20620;BME280;10469;42.720;23.252;2023-02-26T11:56:35;93438.56;;;16.78;47.40
20620;BME280;10469;42.720;23.252;2023-02-26T11:59:23;93458.53;;;16.46;49.23
20620;BME280;10469;42.720;23.252;2023-02-26T12:01:51;93483.19;;;16.44;50.62
20620;BME280;10469;42.720;23.252;2023-02-26T12:04:23;93497.22;;;16.46;51.60
20620;BME280;10469;42.720;23.252;2023-02-26T12:06:53;93528.00;;;16.73;53.08
20620;BME280;10469;42.720;23.252;2023-02-26T12:09:20;93533.19;;;16.69;54.03
20620;BME280;10469;42.720;23.252;2023-02-26T12:11:49;93544.38;;;16.90;53.81
20620;BME280;10469;42.720;23.252;2023-02-26T12:17:12;93562.97;;;17.37;52.69
20620;BME280;10469;42.720;23.252;2023-02-26T12:31:34;93561.84;;;17.07;50.70
20620;BME280;10469;42.720;23.252;2023-02-26T12:37:15;93582.66;;;16.97;48.25
20620;BME280;10469;42.720;23.252;2023-02-26T12:53:51;93610.41;;;17.79;46.49
20620;BME280;10469;42.720;23.252;2023-02-26T12:56:37;93634.81;;;17.79;46.13
20620;BME280;10469;42.720;23.252;2023-02-26T13:07:35;93620.44;;;17.25;47.52
20620;BME280;10469;42.720;23.252;2023-02-26T13:10:35;93618.75;;;17.38;47.34
20620;BME280;10469;42.720;23.252;2023-02-26T13:13:25;93620.00;;;17.09;48.05
20620;BME280;10469;42.720;23.252;2023-02-26T13:18:41;93619.75;;;16.97;50.95
20620;BME280;10469;42.720;23.252;2023-02-26T13:24:10;93619.91;;;17.00;52.66
20620;BME280;10469;42.720;23.252;2023-02-26T13:26:36;93616.22;;;16.60;52.16
20620;BME280;10469;42.720;23.252;2023-02-26T13:29:28;93649.38;;;16.79;53.13
20620;BME280;10469;42.720;23.252;2023-02-26T13:31:58;93611.47;;;16.79;53.91
20620;BME280;10469;42.720;23.252;2023-02-26T13:34:30;93608.75;;;16.93;53.88
20620;BME280;10469;42.720;23.252;2023-02-26T13:36:57;93612.72;;;17.18;54.15
20620;BME280;10469;42.720;23.252;2023-02-26T13:52:31;93600.28;;;16.95;55.43
20620;BME280;10469;42.720;23.252;2023-02-26T13:54:57;93598.16;;;16.69;54.77
20620;BME280;10469;42.720;23.252;2023-02-26T13:57:48;93571.09;;;16.69;54.59
20620;BME280;10469;42.720;23.252;2023-02-26T14:00:32;93559.53;;;17.22;54.49
20620;BME280;10469;42.720;23.252;2023-02-26T14:10:56;93589.47;;;16.72;54.00
20620;BME280;10469;42.720;23.252;2023-02-26T14:13:40;93588.16;;;16.92;53.48
20620;BME280;10469;42.720;23.252;2023-02-26T14:16:26;93614.50;;;16.64;54.49
20620;BME280;10469;42.720;23.252;2023-02-26T14:18:52;93589.34;;;16.77;53.77
20620;BME280;10469;42.720;23.252;2023-02-26T14:21:32;93617.72;;;17.02;53.57
20620;BME280;10469;42.720;23.252;2023-02-26T14:24:13;93610.63;;;16.56;54.04
20620;BME280;10469;42.720;23.252;2023-02-26T14:26:44;93614.75;;;16.54;54.70
20620;BME280;10469;42.720;23.252;2023-02-26T14:34:25;93633.28;;;16.47;55.42
20620;BME280;10469;42.720;23.252;2023-02-26T14:36:57;93620.59;;;16.34;56.06
20620;BME280;10469;42.720;23.252;2023-02-26T14:39:36;93614.09;;;16.07;57.92
20620;BME280;10469;42.720;23.252;2023-02-26T14:42:06;93598.28;;;15.87;58.78
20620;BME280;10469;42.720;23.252;2023-02-26T14:44:38;93602.88;;;15.72;60.34
20620;BME280;10469;42.720;23.252;2023-02-26T14:47:05;93606.50;;;15.68;61.41
20620;BME280;10469;42.720;23.252;2023-02-26T14:49:34;93608.88;;;15.69;62.62
20620;BME280;10469;42.720;23.252;2023-02-26T14:52:24;93623.50;;;15.68;63.51
20620;BME280;10469;42.720;23.252;2023-02-26T14:55:20;93616.63;;;15.57;64.32
20620;BME280;10469;42.720;23.252;2023-02-26T15:01:00;93650.34;;;15.46;66.79
20620;BME280;10469;42.720;23.252;2023-02-26T15:06:43;93650.84;;;15.48;68.90
20620;BME280;10469;42.720;23.252;2023-02-26T15:14:52;93673.69;;;15.23;73.06
20620;BME280;10469;42.720;23.252;2023-02-26T15:25:35;93701.81;;;15.03;78.88
20620;BME280;10469;42.720;23.252;2023-02-26T15:28:04;93685.66;;;14.98;79.25
20620;BME280;10469;42.720;23.252;2023-02-26T15:30:32;93712.16;;;14.96;80.14
20620;BME280;10469;42.720;23.252;2023-02-26T15:33:02;93700.19;;;14.83;80.97
20620;BME280;10469;42.720;23.252;2023-02-26T15:35:30;93717.56;;;14.77;82.17
20620;BME280;10469;42.720;23.252;2023-02-26T15:37:59;93707.69;;;14.67;83.47
20620;BME280;10469;42.720;23.252;2023-02-26T15:40:29;93704.13;;;14.48;84.53
20620;BME280;10469;42.720;23.252;2023-02-26T15:42:56;93705.78;;;14.49;85.70
20620;BME280;10469;42.720;23.252;2023-02-26T15:45:27;93711.63;;;14.56;85.66
20620;BME280;10469;42.720;23.252;2023-02-26T15:47:59;93719.41;;;14.58;86.01
20620;BME280;10469;42.720;23.252;2023-02-26T15:50:32;93719.28;;;14.44;86.27
20620;BME280;10469;42.720;23.252;2023-02-26T15:53:02;93707.72;;;14.43;86.90
20620;BME280;10469;42.720;23.252;2023-02-26T15:55:33;93721.28;;;14.33;87.91